Time;durP1;ratioP1;P1;durP2;ratioP2;P2;SDS_P1;SDS_P2;PMS_P1;PMS_P2;Temp;Humidity;BMP_temperature;BMP_pressure;BME280_temperature;BME280_humidity;BME280_pressure;Samples;Min_cycle;Max_cycle;Signal;HPM_P1;HPM_P2
2021/10/24 00:01:30;;;;;;;;;;;;;;;11.46;56.41;102150.59;4949945;28;98720;-60
2021/10/24 00:03:56;;;;;;;;;;;;;;;11.45;56.62;102161.66;4964510;28;98172;-61
2021/10/24 00:06:22;;;;;;;;;;;;;;;11.43;56.49;102167.25;4943854;28;118905;-59
2021/10/24 00:08:48;;;;;;;;;;;;;;;11.42;56.54;102160.22;4962449;28;118746;-60
2021/10/24 00:11:14;;;;;;;;;;;;;;;11.41;56.41;102165.88;4960531;28;126777;-59
2021/10/24 00:13:40;;;;;;;;;;;;;;;11.40;56.61;102172.34;4957568;28;97836;-61
2021/10/24 00:16:06;;;;;;;;;;;;;;;11.37;56.41;102172.78;4942380;28;127825;-61
2021/10/24 00:18:32;;;;;;;;;;;;;;;11.36;56.00;102165.72;4943172;28;127090;-58
2021/10/24 00:21:01;;;;;;;;;;;;;;;11.35;56.45;102169.47;4943373;28;97969;-60
2021/10/24 00:23:27;;;;;;;;;;;;;;;11.33;56.38;102177.81;4943486;28;111051;-58
2021/10/24 00:25:53;;;;;;;;;;;;;;;11.32;56.12;102176.19;4942236;28;130378;-59
2021/10/24 00:28:19;;;;;;;;;;;;;;;11.30;56.08;102172.88;4946292;28;98870;-61
2021/10/24 00:30:45;;;;;;;;;;;;;;;11.29;56.06;102168.53;4962218;28;127445;-58
2021/10/24 00:33:11;;;;;;;;;;;;;;;11.28;56.14;102175.00;4961299;28;112448;-61
2021/10/24 00:35:37;;;;;;;;;;;;;;;11.28;55.93;102169.59;4962223;28;129238;-61
2021/10/24 00:38:03;;;;;;;;;;;;;;;11.25;56.29;102172.75;4962365;28;99059;-58
2021/10/24 00:40:28;;;;;;;;;;;;;;;11.24;55.94;102174.63;4961760;28;119434;-60
2021/10/24 00:42:55;;;;;;;;;;;;;;;11.22;56.23;102171.31;4944278;28;104631;-58
2021/10/24 00:45:23;;;;;;;;;;;;;;;11.22;56.21;102179.44;4961815;28;98919;-61
2021/10/24 00:47:49;;;;;;;;;;;;;;;11.21;56.08;102176.97;4962755;28;98395;-59
2021/10/24 00:50:15;;;;;;;;;;;;;;;11.19;56.50;102169.09;4960700;28;122079;-61
2021/10/24 00:52:42;;;;;;;;;;;;;;;11.18;56.27;102164.75;4955812;28;97913;-58
2021/10/24 00:55:08;;;;;;;;;;;;;;;11.16;56.30;102166.88;4925939;28;98497;-58
2021/10/24 00:57:34;;;;;;;;;;;;;;;11.14;56.05;102171.66;4962438;28;121461;-58
2021/10/24 01:00:06;;;;;;;;;;;;;;;11.13;55.73;102164.63;4946009;28;127607;-58
2021/10/24 01:02:32;;;;;;;;;;;;;;;11.12;55.93;102168.38;4959637;28;98359;-58
2021/10/24 01:04:58;;;;;;;;;;;;;;;11.11;56.18;102168.59;4963041;28;99162;-61
2021/10/24 01:07:23;;;;;;;;;;;;;;;11.10;55.82;102170.47;4961491;28;126304;-58
2021/10/24 01:09:49;;;;;;;;;;;;;;;11.07;56.34;102169.03;4941318;28;129083;-58
2021/10/24 01:12:16;;;;;;;;;;;;;;;11.07;56.28;102169.03;4943375;28;112475;-58
2021/10/24 01:14:42;;;;;;;;;;;;;;;11.05;56.45;102160.38;4947011;28;98252;-61
2021/10/24 01:17:08;;;;;;;;;;;;;;;11.03;55.87;102167.84;4941850;28;118899;-62
2021/10/24 01:19:34;;;;;;;;;;;;;;;11.02;56.28;102168.91;4907447;28;127104;-61
2021/10/24 01:22:00;;;;;;;;;;;;;;;11.01;56.30;102172.69;4908230;28;103139;-58
2021/10/24 01:24:25;;;;;;;;;;;;;;;11.00;56.32;102178.28;4922933;28;129190;-61
2021/10/24 01:26:51;;;;;;;;;;;;;;;10.97;56.03;102168.78;4942056;28;126572;-61
2021/10/24 01:29:17;;;;;;;;;;;;;;;10.97;55.93;102174.19;4942526;28;98441;-60
2021/10/24 01:31:43;;;;;;;;;;;;;;;10.95;55.56;102173.56;4942772;28;97913;-58
2021/10/24 01:34:09;;;;;;;;;;;;;;;10.94;55.52;102154.94;4940870;28;127970;-61
2021/10/24 01:36:35;;;;;;;;;;;;;;;10.93;55.88;102167.59;4941394;28;105888;-58
2021/10/24 01:39:01;;;;;;;;;;;;;;;10.93;56.14;102164.09;4942338;28;97738;-58
2021/10/24 01:41:30;;;;;;;;;;;;;;;10.90;55.63;102159.13;4942841;28;97992;-58
2021/10/24 01:43:56;;;;;;;;;;;;;;;10.90;55.91;102153.75;4942188;28;99332;-58
2021/10/24 01:46:22;;;;;;;;;;;;;;;10.88;55.48;102156.66;4942739;28;98519;-61
2021/10/24 01:48:48;;;;;;;;;;;;;;;10.87;55.58;102163.09;4941456;28;108789;-58
2021/10/24 01:51:14;;;;;;;;;;;;;;;10.85;55.68;102157.13;4942135;28;97875;-58
2021/10/24 01:53:41;;;;;;;;;;;;;;;10.84;55.28;102160.84;4942507;28;98328;-61
2021/10/24 01:56:08;;;;;;;;;;;;;;;10.83;55.25;102156.53;4940525;28;121492;-61
2021/10/24 01:58:34;;;;;;;;;;;;;;;10.81;55.86;102155.94;4923737;28;111757;-61
2021/10/24 02:00:59;;;;;;;;;;;;;;;10.79;55.54;102158.84;4942696;28;97852;-58
2021/10/24 02:03:25;;;;;;;;;;;;;;;10.78;55.37;102156.38;4923108;28;126183;-59
2021/10/24 02:05:51;;;;;;;;;;;;;;;10.78;55.66;102159.09;4939809;28;127838;-61
2021/10/24 02:08:17;;;;;;;;;;;;;;;10.75;55.50;102154.97;4941179;28;98265;-62
2021/10/24 02:10:43;;;;;;;;;;;;;;;10.75;55.46;102154.97;4942290;28;97782;-61
2021/10/24 02:13:10;;;;;;;;;;;;;;;10.74;55.74;102156.03;4939705;28;123077;-58
2021/10/24 02:15:36;;;;;;;;;;;;;;;10.72;55.32;102150.00;4941159;28;125566;-58
2021/10/24 02:18:06;;;;;;;;;;;;;;;10.70;55.75;102149.44;4940280;28;126847;-62
2021/10/24 02:20:34;;;;;;;;;;;;;;;10.69;55.71;102153.19;4942687;28;98234;-58
2021/10/24 02:23:00;;;;;;;;;;;;;;;10.68;55.21;102148.00;4940832;28;99081;-62
2021/10/24 02:25:26;;;;;;;;;;;;;;;10.67;55.28;102149.06;4941578;28;98917;-61
2021/10/24 02:27:52;;;;;;;;;;;;;;;10.65;55.07;102154.69;4939958;28;127861;-58
2021/10/24 02:30:18;;;;;;;;;;;;;;;10.65;55.92;102148.44;4942303;28;97811;-58
2021/10/24 02:32:44;;;;;;;;;;;;;;;10.64;55.84;102146.81;4960970;28;106637;-61
2021/10/24 02:35:11;;;;;;;;;;;;;;;10.64;55.38;102152.22;4961832;28;98854;-61
2021/10/24 02:37:36;;;;;;;;;;;;;;;10.62;55.54;102157.84;4960732;28;98217;-61
2021/10/24 02:40:04;;;;;;;;;;;;;;;10.61;55.83;102155.34;4960247;28;112884;-61
2021/10/24 02:42:29;;;;;;;;;;;;;;;10.60;55.25;102143.75;4960672;28;121853;-58
2021/10/24 02:44:55;;;;;;;;;;;;;;;10.57;55.57;102136.94;4960272;28;127314;-58
2021/10/24 02:47:21;;;;;;;;;;;;;;;10.54;54.98;102148.19;4956379;28;128022;-58
2021/10/24 02:49:48;;;;;;;;;;;;;;;10.55;55.38;102151.69;4942487;28;98084;-61
2021/10/24 02:52:14;;;;;;;;;;;;;;;10.54;55.38;102158.97;4951644;28;98345;-61
2021/10/24 02:54:40;;;;;;;;;;;;;;;10.53;55.24;102153.78;4959889;28;98043;-58
2021/10/24 02:57:06;;;;;;;;;;;;;;;10.51;55.43;102148.63;4943702;28;98467;-58
2021/10/24 02:59:32;;;;;;;;;;;;;;;10.51;55.03;102154.03;4958268;28;98051;-58
2021/10/24 03:01:58;;;;;;;;;;;;;;;10.50;55.28;102159.66;4951287;28;121922;-58
2021/10/24 03:04:24;;;;;;;;;;;;;;;10.50;55.61;102162.34;4946886;28;98219;-58
2021/10/24 03:06:50;;;;;;;;;;;;;;;10.47;54.74;102155.53;4965001;28;98210;-61
2021/10/24 03:09:17;;;;;;;;;;;;;;;10.46;55.34;102151.19;4964728;28;97829;-58
2021/10/24 03:11:43;;;;;;;;;;;;;;;10.46;54.95;102158.47;4964563;28;99088;-58
2021/10/24 03:14:09;;;;;;;;;;;;;;;10.44;55.09;102157.84;4963393;28;106995;-61
2021/10/24 03:16:34;;;;;;;;;;;;;;;10.43;54.82;102162.41;4929345;28;97913;-58
2021/10/24 03:19:01;;;;;;;;;;;;;;;10.41;55.07;102156.41;4951508;28;114420;-61
2021/10/24 03:21:27;;;;;;;;;;;;;;;10.41;55.26;102160.97;4963767;28;98813;-58
2021/10/24 03:23:53;;;;;;;;;;;;;;;10.39;54.85;102157.69;4963215;28;108051;-58
2021/10/24 03:26:19;;;;;;;;;;;;;;;10.38;54.80;102166.84;4962528;28;128679;-58
2021/10/24 03:28:45;;;;;;;;;;;;;;;10.37;55.42;102163.31;4945872;28;97939;-59
2021/10/24 03:31:11;;;;;;;;;;;;;;;10.35;55.33;102170.81;4963737;28;99603;-61
2021/10/24 03:33:37;;;;;;;;;;;;;;;10.35;54.99;102172.69;4963987;28;112116;-59
2021/10/24 03:36:03;;;;;;;;;;;;;;;10.32;55.00;102157.78;4951048;28;126988;-60
2021/10/24 03:38:29;;;;;;;;;;;;;;;10.31;55.13;102165.03;4948691;28;97742;-61
2021/10/24 03:40:55;;;;;;;;;;;;;;;10.30;54.87;102162.56;4961905;28;129231;-60
2021/10/24 03:43:21;;;;;;;;;;;;;;;10.29;55.14;102167.13;4963395;28;127517;-61
2021/10/24 03:45:47;;;;;;;;;;;;;;;10.28;55.55;102170.06;4955744;28;125641;-58
2021/10/24 03:48:13;;;;;;;;;;;;;;;10.28;54.76;102172.75;4963869;28;97992;-59
2021/10/24 03:50:38;;;;;;;;;;;;;;;10.26;55.13;102164.91;4926324;28;128110;-59
2021/10/24 03:53:04;;;;;;;;;;;;;;;10.24;54.73;102168.81;4943865;28;125974;-61
2021/10/24 03:55:30;;;;;;;;;;;;;;;10.23;54.67;102173.38;4963429;28;127320;-59
2021/10/24 03:57:57;;;;;;;;;;;;;;;10.22;55.00;102173.63;4957302;28;97885;-59
2021/10/24 04:00:23;;;;;;;;;;;;;;;10.21;55.03;102175.47;4943473;28;99031;-57
2021/10/24 04:02:51;;;;;;;;;;;;;;;10.21;54.65;102180.03;4944365;28;98539;-61
2021/10/24 04:05:18;;;;;;;;;;;;;;;10.19;55.38;102177.56;4943473;28;98000;-60
2021/10/24 04:07:44;;;;;;;;;;;;;;;10.19;54.55;102171.38;4944689;28;97988;-61
2021/10/24 04:10:10;;;;;;;;;;;;;;;10.17;55.49;102173.44;4943508;28;98933;-61
2021/10/24 04:12:36;;;;;;;;;;;;;;;10.15;55.34;102176.38;4943240;28;122297;-58
2021/10/24 04:15:02;;;;;;;;;;;;;;;10.16;54.26;102174.50;4943673;28;127559;-61
2021/10/24 04:17:27;;;;;;;;;;;;;;;10.15;54.96;102172.88;4958883;28;98238;-61
2021/10/24 04:19:54;;;;;;;;;;;;;;;10.14;54.67;102171.19;4961046;28;127410;-61
2021/10/24 04:22:19;;;;;;;;;;;;;;;10.12;55.06;102166.03;4961483;28;127062;-61
2021/10/24 04:24:45;;;;;;;;;;;;;;;10.11;55.12;102164.41;4961798;28;128051;-61
2021/10/24 04:27:11;;;;;;;;;;;;;;;10.10;54.94;102168.16;4962802;28;112628;-62
2021/10/24 04:29:37;;;;;;;;;;;;;;;10.10;55.04;102168.16;4961635;28;126911;-60
2021/10/24 04:32:03;;;;;;;;;;;;;;;10.07;54.93;102161.31;4962278;28;127346;-61
2021/10/24 04:34:29;;;;;;;;;;;;;;;10.07;55.14;102158.63;4961769;28;126484;-60
2021/10/24 04:36:55;;;;;;;;;;;;;;;10.06;54.60;102159.69;4962801;28;98002;-61
2021/10/24 04:39:21;;;;;;;;;;;;;;;10.05;54.87;102160.72;4961980;28;127412;-58
2021/10/24 04:41:47;;;;;;;;;;;;;;;10.03;54.61;102156.59;4962895;28;98266;-62
2021/10/24 04:44:13;;;;;;;;;;;;;;;10.02;54.55;102166.56;4961382;28;127509;-58
2021/10/24 04:46:39;;;;;;;;;;;;;;;10.01;54.92;102164.91;4944413;28;97816;-60
2021/10/24 04:49:05;;;;;;;;;;;;;;;10.01;54.61;102166.78;4949980;28;128592;-58
2021/10/24 04:51:31;;;;;;;;;;;;;;;10.00;55.24;102165.94;4961766;28;128240;-61
2021/10/24 04:53:57;;;;;;;;;;;;;;;9.99;54.91;102161.63;4962904;28;98083;-61
2021/10/24 04:56:23;;;;;;;;;;;;;;;9.98;54.65;102167.22;4959520;28;114642;-58
2021/10/24 04:58:49;;;;;;;;;;;;;;;9.97;54.88;102168.25;4942413;28;121764;-58
2021/10/24 05:01:14;;;;;;;;;;;;;;;9.96;54.67;102162.06;4952020;28;127177;-60
2021/10/24 05:03:40;;;;;;;;;;;;;;;9.95;54.86;102171.19;4961905;28;127688;-60
2021/10/24 05:06:07;;;;;;;;;;;;;;;9.94;54.95;102172.25;4962282;28;97923;-61
2021/10/24 05:08:33;;;;;;;;;;;;;;;9.93;54.74;102167.06;4957314;28;97809;-61
2021/10/24 05:10:59;;;;;;;;;;;;;;;9.92;54.63;102166.25;4941522;28;125945;-60
2021/10/24 05:13:24;;;;;;;;;;;;;;;9.91;55.03;102164.59;4941575;28;127448;-61
2021/10/24 05:15:50;;;;;;;;;;;;;;;9.91;54.59;102171.84;4950539;28;112243;-61
2021/10/24 05:18:17;;;;;;;;;;;;;;;9.90;54.84;102181.78;4940291;28;126479;-58
2021/10/24 05:20:43;;;;;;;;;;;;;;;9.89;55.27;102174.75;4942780;28;98631;-62
2021/10/24 05:23:09;;;;;;;;;;;;;;;9.87;54.75;102166.09;4941900;28;127398;-58
2021/10/24 05:25:35;;;;;;;;;;;;;;;9.85;54.94;102170.84;4943353;28;97930;-61
2021/10/24 05:28:01;;;;;;;;;;;;;;;9.86;54.52;102169.81;4941856;28;127314;-61
2021/10/24 05:30:27;;;;;;;;;;;;;;;9.83;55.06;102167.56;4955617;28;115069;-58
2021/10/24 05:32:53;;;;;;;;;;;;;;;9.84;54.47;102177.28;4960724;28;98371;-62
2021/10/24 05:35:19;;;;;;;;;;;;;;;9.83;54.82;102175.66;4943641;28;98012;-59
2021/10/24 05:37:45;;;;;;;;;;;;;;;9.82;54.41;102180.22;4959100;28;98657;-58
2021/10/24 05:40:12;;;;;;;;;;;;;;;9.82;54.90;102184.75;4960719;28;128792;-58
2021/10/24 05:42:38;;;;;;;;;;;;;;;9.81;54.25;102177.72;4961322;28;98557;-63
2021/10/24 05:45:04;;;;;;;;;;;;;;;9.79;54.84;102175.28;4950110;28;113586;-58
2021/10/24 05:47:30;;;;;;;;;;;;;;;9.80;54.51;102182.28;4961370;28;98516;-58
2021/10/24 05:49:56;;;;;;;;;;;;;;;9.80;55.05;102178.78;4960434;28;127988;-58
2021/10/24 05:52:22;;;;;;;;;;;;;;;9.80;55.13;102184.16;4961238;28;121987;-58
2021/10/24 05:54:48;;;;;;;;;;;;;;;9.79;54.48;102186.03;4952161;28;97829;-60
2021/10/24 05:57:14;;;;;;;;;;;;;;;9.80;54.38;102181.47;4961303;28;125594;-61
2021/10/24 05:59:41;;;;;;;;;;;;;;;9.78;54.49;102178.16;4946450;28;128200;-60
2021/10/24 06:02:09;;;;;;;;;;;;;;;9.80;54.25;102185.00;4949352;28;98667;-61
2021/10/24 06:04:38;;;;;;;;;;;;;;;9.81;55.12;102183.94;4942501;28;97995;-61
2021/10/24 06:07:04;;;;;;;;;;;;;;;9.81;55.01;102183.13;4939969;28;125208;-61
2021/10/24 06:09:41;;;;;;;;;;;;;;;9.82;55.00;102179.38;4942088;28;98455;-59
2021/10/24 06:12:12;;;;;;;;;;;;;;;9.82;54.06;102185.59;4947507;28;98572;-58
2021/10/24 06:14:38;;;;;;;;;;;;;;;9.84;54.31;102182.69;4950544;28;98091;-58
2021/10/24 06:17:08;;;;;;;;;;;;;;;9.84;54.34;102185.38;4940483;28;121252;-61
2021/10/24 06:19:35;;;;;;;;;;;;;;;9.87;54.12;102184.94;4913074;28;98668;-60
2021/10/24 06:22:00;;;;;;;;;;;;;;;9.87;54.22;102186.81;4960339;28;97928;-58
2021/10/24 06:24:27;;;;;;;;;;;;;;;9.88;54.24;102194.66;4949365;28;110558;-60
2021/10/24 06:26:53;;;;;;;;;;;;;;;9.89;54.89;102192.78;4928708;28;107127;-60
2021/10/24 06:29:19;;;;;;;;;;;;;;;9.90;54.31;102189.88;4949348;28;123963;-60
2021/10/24 06:31:45;;;;;;;;;;;;;;;9.92;53.99;102193.19;4940007;28;98247;-58
2021/10/24 06:34:11;;;;;;;;;;;;;;;9.94;53.99;102192.94;4943935;28;113417;-58
2021/10/24 06:36:37;;;;;;;;;;;;;;;9.96;54.61;102190.88;4944005;28;126419;-61
2021/10/24 06:39:03;;;;;;;;;;;;;;;9.97;54.49;102187.94;4943470;28;123967;-61
2021/10/24 06:41:29;;;;;;;;;;;;;;;10.00;54.72;102186.69;4944923;28;98734;-59
2021/10/24 06:43:55;;;;;;;;;;;;;;;10.01;54.59;102199.91;4946097;28;99111;-60
2021/10/24 06:46:21;;;;;;;;;;;;;;;10.05;54.29;102187.66;4944256;28;127086;-60
2021/10/24 06:48:46;;;;;;;;;;;;;;;10.08;54.03;102199.88;4944347;28;127826;-62
2021/10/24 06:51:12;;;;;;;;;;;;;;;10.11;54.39;102198.59;4944099;28;122908;-62
2021/10/24 06:53:38;;;;;;;;;;;;;;;10.16;54.74;102206.84;4925757;28;111270;-62
2021/10/24 06:56:04;;;;;;;;;;;;;;;10.22;54.63;102201.41;4942293;28;128885;-61
2021/10/24 06:58:30;;;;;;;;;;;;;;;10.28;54.07;102200.53;4943494;28;128766;-58
2021/10/24 07:00:56;;;;;;;;;;;;;;;10.32;54.61;102203.59;4943354;28;126674;-61
2021/10/24 07:03:22;;;;;;;;;;;;;;;10.38;54.46;102207.28;4926404;28;112443;-58
2021/10/24 07:05:48;;;;;;;;;;;;;;;10.47;54.31;102198.66;4944847;28;98367;-63
2021/10/24 07:08:14;;;;;;;;;;;;;;;10.57;54.28;102192.72;4943013;28;127462;-61
2021/10/24 07:10:40;;;;;;;;;;;;;;;10.57;54.77;102192.72;4944835;28;98396;-61
2021/10/24 07:13:06;;;;;;;;;;;;;;;10.61;54.71;102187.72;4945404;28;98139;-58
2021/10/24 07:15:32;;;;;;;;;;;;;;;10.65;54.86;102197.00;4944116;28;98384;-61
2021/10/24 07:17:58;;;;;;;;;;;;;;;10.71;54.48;102196.91;4942096;28;128319;-58
2021/10/24 07:20:24;;;;;;;;;;;;;;;10.76;54.55;102190.84;4943579;28;126238;-58
2021/10/24 07:22:50;;;;;;;;;;;;;;;10.85;54.77;102204.88;4945243;28;98059;-58
2021/10/24 07:25:16;;;;;;;;;;;;;;;10.93;54.55;102199.16;4944347;28;110040;-61
2021/10/24 07:27:42;;;;;;;;;;;;;;;11.03;54.27;102192.13;4943568;28;99098;-60
2021/10/24 07:30:08;;;;;;;;;;;;;;;11.14;54.50;102193.25;4943010;28;98016;-61
2021/10/24 07:32:35;;;;;;;;;;;;;;;11.29;54.28;102193.66;4943195;28;97789;-62
2021/10/24 07:35:01;;;;;;;;;;;;;;;11.60;54.00;102191.72;4943302;28;98917;-59
2021/10/24 07:37:27;;;;;;;;;;;;;;;11.88;53.23;102193.78;4943183;28;99133;-62
2021/10/24 07:39:53;;;;;;;;;;;;;;;12.07;53.09;102193.69;4941913;28;126808;-62
2021/10/24 07:42:19;;;;;;;;;;;;;;;12.48;52.54;102198.09;4941087;28;99733;-59
2021/10/24 07:44:45;;;;;;;;;;;;;;;12.76;52.20;102187.31;4940298;28;127996;-58
2021/10/24 07:47:11;;;;;;;;;;;;;;;12.97;52.12;102193.13;4940135;28;98182;-61
2021/10/24 07:49:36;;;;;;;;;;;;;;;13.42;51.30;102195.88;4939421;28;127294;-61
2021/10/24 07:52:03;;;;;;;;;;;;;;;13.78;51.19;102195.66;4904915;28;111680;-59
2021/10/24 07:54:29;;;;;;;;;;;;;;;14.07;50.99;102190.94;4939929;28;99003;-58
2021/10/24 07:56:55;;;;;;;;;;;;;;;14.39;50.52;102193.84;4939261;28;128761;-61
2021/10/24 07:59:21;;;;;;;;;;;;;;;14.74;50.40;102190.78;4941168;28;98003;-59
2021/10/24 08:01:47;;;;;;;;;;;;;;;15.20;49.59;102186.63;4941475;28;98108;-59
2021/10/24 08:04:13;;;;;;;;;;;;;;;15.78;48.82;102186.09;4940496;28;99286;-59
2021/10/24 08:06:39;;;;;;;;;;;;;;;16.47;48.43;102191.41;4939713;28;98316;-61
2021/10/24 08:09:07;;;;;;;;;;;;;;;17.51;46.98;102188.66;4939978;28;98347;-59
2021/10/24 08:11:33;;;;;;;;;;;;;;;18.79;45.14;102187.31;4939662;28;110020;-59
2021/10/24 08:13:59;;;;;;;;;;;;;;;20.05;43.94;102188.53;4940052;28;99210;-61
2021/10/24 08:16:25;;;;;;;;;;;;;;;21.16;42.86;102190.16;4939837;28;121064;-59
2021/10/24 08:18:51;;;;;;;;;;;;;;;21.82;42.45;102194.59;4940490;28;107244;-60
2021/10/24 08:21:17;;;;;;;;;;;;;;;22.35;42.40;102187.84;4940237;28;98478;-60
2021/10/24 08:23:44;;;;;;;;;;;;;;;24.32;39.98;102196.28;4938814;28;127882;-62
2021/10/24 08:26:10;;;;;;;;;;;;;;;26.31;38.01;102200.91;4939135;28;98804;-62
2021/10/24 08:28:37;;;;;;;;;;;;;;;28.16;36.65;102204.22;4939797;28;110101;-61
2021/10/24 08:31:03;;;;;;;;;;;;;;;29.55;35.60;102200.09;4947012;28;111194;-60
2021/10/24 08:33:30;;;;;;;;;;;;;;;30.66;34.75;102204.84;4949820;28;98571;-60
2021/10/24 08:36:02;;;;;;;;;;;;;;;31.70;34.26;102199.41;4958786;28;98791;-61
2021/10/24 08:38:31;;;;;;;;;;;;;;;32.41;34.25;102186.66;4934389;28;104446;-61
2021/10/24 08:40:57;;;;;;;;;;;;;;;31.76;35.69;102186.78;4947251;28;98000;-60
2021/10/24 08:43:29;;;;;;;;;;;;;;;32.46;35.05;102172.41;4945668;28;98046;-60
2021/10/24 08:45:55;;;;;;;;;;;;;;;33.12;34.71;102178.44;4942913;28;99307;-61
2021/10/24 08:48:21;;;;;;;;;;;;;;;33.72;34.78;102166.31;4944468;28;98008;-60
2021/10/24 08:50:47;;;;;;;;;;;;;;;33.89;34.39;102162.03;4951953;28;112578;-61
2021/10/24 08:53:13;;;;;;;;;;;;;;;33.86;35.22;102152.44;4947587;28;99448;-61
2021/10/24 08:55:41;;;;;;;;;;;;;;;33.53;35.56;102146.97;4928586;28;98121;-62
2021/10/24 08:58:08;;;;;;;;;;;;;;;33.22;35.96;102141.44;4933995;28;98560;-62
2021/10/24 09:00:34;;;;;;;;;;;;;;;33.39;36.24;102131.63;4924936;28;97946;-61
2021/10/24 09:03:09;;;;;;;;;;;;;;;33.59;36.25;102131.44;4936683;28;100136;-60
2021/10/24 09:05:36;;;;;;;;;;;;;;;33.95;36.20;102122.13;4943827;28;98716;-61
2021/10/24 09:08:03;;;;;;;;;;;;;;;34.15;35.61;102127.47;4949058;28;98091;-61
2021/10/24 09:10:38;;;;;;;;;;;;;;;34.06;35.92;102122.22;4959779;28;98122;-61
2021/10/24 09:13:06;;;;;;;;;;;;;;;33.88;36.92;102116.50;4934770;28;99204;-60
2021/10/24 09:15:55;;;;;;;;;;;;;;;33.84;37.22;102118.47;4944536;28;119927;-61
2021/10/24 09:18:23;;;;;;;;;;;;;;;33.96;36.85;102117.38;4939173;28;97879;-62
2021/10/24 09:20:49;;;;;;;;;;;;;;;34.06;37.29;102116.66;4958486;28;98109;-62
2021/10/24 09:23:15;;;;;;;;;;;;;;;34.16;36.88;102115.13;4943772;28;99239;-61
2021/10/24 09:25:48;;;;;;;;;;;;;;;34.39;37.09;102110.03;4936496;28;98527;-62
2021/10/24 09:28:20;;;;;;;;;;;;;;;34.69;36.26;102103.38;4946869;28;98728;-60
2021/10/24 09:30:46;;;;;;;;;;;;;;;34.84;36.01;102105.03;4942766;28;98045;-62
2021/10/24 09:33:13;;;;;;;;;;;;;;;35.00;35.59;102106.72;4952405;28;98280;-60
2021/10/24 09:35:46;;;;;;;;;;;;;;;35.21;35.34;102103.94;4951619;28;98918;-60
2021/10/24 09:38:14;;;;;;;;;;;;;;;35.68;34.29;102104.78;4952993;28;98119;-60
2021/10/24 09:40:47;;;;;;;;;;;;;;;35.95;34.05;102096.72;4948121;28;98091;-60
2021/10/24 09:43:17;;;;;;;;;;;;;;;35.94;33.73;102094.34;4942982;28;98309;-60
2021/10/24 09:45:45;;;;;;;;;;;;;;;36.27;32.96;102093.84;4934162;28;98835;-62
2021/10/24 09:48:13;;;;;;;;;;;;;;;36.76;31.92;102094.88;4944582;28;117717;-60
2021/10/24 09:50:52;;;;;;;;;;;;;;;37.23;31.29;102086.19;4956860;28;98175;-60
2021/10/24 09:53:19;;;;;;;;;;;;;;;37.84;30.55;102098.47;4942473;28;98449;-61
2021/10/24 09:55:47;;;;;;;;;;;;;;;37.83;30.72;102088.44;4917373;28;98397;-58
2021/10/24 09:58:14;;;;;;;;;;;;;;;37.69;29.89;102074.56;4953338;28;106181;-60
2021/10/24 10:00:42;;;;;;;;;;;;;;;37.68;30.18;102077.75;4944265;28;98054;-58
2021/10/24 10:03:08;;;;;;;;;;;;;;;37.46;30.17;102063.91;4946623;28;99745;-60
2021/10/24 10:05:35;;;;;;;;;;;;;;;37.68;30.03;102070.13;4954052;28;98608;-60
2021/10/24 10:08:01;;;;;;;;;;;;;;;38.15;28.79;102062.00;4950545;28;121581;-59
2021/10/24 10:10:28;;;;;;;;;;;;;;;38.56;28.71;102061.09;4949522;28;108126;-58
2021/10/24 10:12:55;;;;;;;;;;;;;;;39.00;27.78;102065.72;4917231;28;99374;-60
2021/10/24 10:15:21;;;;;;;;;;;;;;;39.41;27.29;102055.38;4926473;28;98794;-58
2021/10/24 10:17:55;;;;;;;;;;;;;;;39.60;26.83;102049.00;4948798;28;98205;-60
2021/10/24 10:20:25;;;;;;;;;;;;;;;39.49;27.16;102034.28;4939313;28;108756;-60
2021/10/24 10:23:12;;;;;;;;;;;;;;;39.76;26.57;102048.31;4944941;28;99463;-60
2021/10/24 10:25:38;;;;;;;;;;;;;;;39.86;26.17;102036.03;4961659;28;99263;-60
2021/10/24 10:28:05;;;;;;;;;;;;;;;39.86;26.44;102026.78;4957804;28;98216;-58
2021/10/24 10:30:42;;;;;;;;;;;;;;;39.69;26.11;102023.84;4949758;28;97802;-60
2021/10/24 10:33:30;;;;;;;;;;;;;;;39.64;26.17;102018.69;4953730;28;98929;-58
2021/10/24 10:35:56;;;;;;;;;;;;;;;39.67;26.12;102008.59;4943830;28;99900;-61
2021/10/24 10:38:39;;;;;;;;;;;;;;;39.42;26.29;102017.50;4951881;28;98114;-61
2021/10/24 10:41:09;;;;;;;;;;;;;;;38.79;26.80;102004.03;4958716;28;98259;-62
2021/10/24 10:43:35;;;;;;;;;;;;;;;38.02;26.96;101996.25;4952907;28;98685;-62
2021/10/24 10:46:02;;;;;;;;;;;;;;;37.46;27.49;101985.22;4953266;28;123851;-59
2021/10/24 10:48:35;;;;;;;;;;;;;;;36.84;28.15;101986.91;4957971;28;98303;-61
2021/10/24 10:51:19;;;;;;;;;;;;;;;36.16;28.79;101983.69;4948864;28;98217;-59
2021/10/24 10:53:45;;;;;;;;;;;;;;;35.35;29.35;101983.47;4945225;28;99170;-59
2021/10/24 10:56:16;;;;;;;;;;;;;;;34.47;30.16;101987.75;4956233;28;98550;-61
2021/10/24 10:58:46;;;;;;;;;;;;;;;33.60;30.79;101982.97;4950351;28;98022;-59
2021/10/24 11:01:18;;;;;;;;;;;;;;;32.88;31.67;101981.53;4956965;28;98110;-59
2021/10/24 11:03:49;;;;;;;;;;;;;;;32.22;32.29;101970.03;4947221;28;116780;-61
2021/10/24 11:06:24;;;;;;;;;;;;;;;31.70;32.36;101965.34;4954575;28;98437;-61
2021/10/24 11:09:00;;;;;;;;;;;;;;;31.33;32.38;101963.22;4956951;28;98742;-61
2021/10/24 11:11:44;;;;;;;;;;;;;;;30.85;32.90;101965.56;4929736;28;104700;-59
2021/10/24 11:14:16;;;;;;;;;;;;;;;30.43;33.02;101969.13;4932373;28;99198;-58
2021/10/24 11:16:47;;;;;;;;;;;;;;;30.08;32.96;101969.97;4937913;28;98963;-63
2021/10/24 11:19:37;;;;;;;;;;;;;;;29.69;33.49;101965.53;4942369;28;98296;-61
2021/10/24 11:22:05;;;;;;;;;;;;;;;29.26;33.68;101956.19;4946385;28;97861;-63
2021/10/24 11:24:40;;;;;;;;;;;;;;;28.93;33.73;101956.53;4949940;28;119404;-58
2021/10/24 11:27:08;;;;;;;;;;;;;;;28.61;33.99;101962.00;4947550;28;120365;-62
2021/10/24 11:29:34;;;;;;;;;;;;;;;28.28;33.86;101951.97;4944828;28;99000;-61
2021/10/24 11:32:23;;;;;;;;;;;;;;;28.00;33.98;101953.94;4952944;28;116325;-59
2021/10/24 11:34:49;;;;;;;;;;;;;;;27.63;34.27;101946.47;4958580;28;99040;-61
2021/10/24 11:37:15;;;;;;;;;;;;;;;27.35;34.36;101948.31;4958673;28;124295;-58
2021/10/24 11:39:41;;;;;;;;;;;;;;;27.07;34.63;101943.44;4955507;28;127525;-61
2021/10/24 11:42:09;;;;;;;;;;;;;;;26.81;34.94;101934.66;4938287;28;114139;-58
2021/10/24 11:44:34;;;;;;;;;;;;;;;26.54;35.31;101936.88;4958577;28;98610;-58
2021/10/24 11:47:11;;;;;;;;;;;;;;;26.25;35.36;101929.47;4940044;28;127540;-61
2021/10/24 11:49:49;;;;;;;;;;;;;;;25.76;35.85;101922.88;4953731;28;116082;-60
2021/10/24 11:52:42;;;;;;;;;;;;;;;25.19;36.69;101921.41;4941238;28;98133;-59
2021/10/24 11:55:10;;;;;;;;;;;;;;;24.67;37.36;101914.13;4920817;28;98333;-61
2021/10/24 11:58:05;;;;;;;;;;;;;;;24.31;37.37;101919.19;4955296;28;98495;-60
2021/10/24 12:03:30;;;;;;;;;;;;;;;23.55;38.41;101903.91;4935888;28;98140;-58
2021/10/24 12:05:56;;;;;;;;;;;;;;;23.27;38.50;101906.09;4958519;28;99367;-59
2021/10/24 12:08:55;;;;;;;;;;;;;;;23.03;38.90;101909.25;4953217;28;129165;-61
2021/10/24 12:11:43;;;;;;;;;;;;;;;22.75;39.05;101912.16;4890724;28;98613;-58
2021/10/24 12:14:12;;;;;;;;;;;;;;;22.51;39.26;101906.19;4953336;28;98164;-58
2021/10/24 12:16:42;;;;;;;;;;;;;;;22.30;39.33;101898.44;4938492;28;98205;-58
2021/10/24 12:19:25;;;;;;;;;;;;;;;22.13;39.72;101897.50;4958600;28;108023;-61
2021/10/24 12:22:07;;;;;;;;;;;;;;;21.94;39.81;101890.22;4952800;28;98150;-59
2021/10/24 12:24:44;;;;;;;;;;;;;;;21.77;40.16;101887.31;4956901;28;98434;-58
2021/10/24 12:27:17;;;;;;;;;;;;;;;21.61;40.34;101892.34;4958830;28;98994;-58
2021/10/24 12:30:04;;;;;;;;;;;;;;;21.47;40.33;101881.41;4956465;28;99206;-58
2021/10/24 12:32:30;;;;;;;;;;;;;;;21.31;40.49;101891.03;4953259;28;98599;-59
2021/10/24 12:34:58;;;;;;;;;;;;;;;21.18;40.69;101892.66;4935831;28;97769;-61
2021/10/24 12:37:25;;;;;;;;;;;;;;;21.05;40.85;101877.81;4958019;28;98926;-61
2021/10/24 12:40:18;;;;;;;;;;;;;;;20.95;40.96;101885.44;4950077;28;98291;-60